createdAt,value
2023-03-23T00:02:19.829Z,2.30
2023-03-23T00:06:19.813Z,2.28
2023-03-23T00:10:19.749Z,2.25
2023-03-23T00:14:19.719Z,2.24
2023-03-23T00:18:19.712Z,2.31
2023-03-23T00:22:19.673Z,2.18
2023-03-23T00:26:19.604Z,2.21
2023-03-23T00:30:19.598Z,2.24
2023-03-23T00:34:19.557Z,2.21
2023-03-23T00:38:19.543Z,2.20
2023-03-23T00:42:19.670Z,2.20
2023-03-23T00:46:19.630Z,2.13
2023-03-23T00:50:22.257Z,2.16
2023-03-23T00:54:20.591Z,2.16
2023-03-23T00:58:19.580Z,2.16
2023-03-23T01:02:19.735Z,2.13
2023-03-23T01:06:19.747Z,2.10
2023-03-23T01:10:19.685Z,2.08
2023-03-23T01:14:19.691Z,2.10
2023-03-23T01:18:19.610Z,2.07
2023-03-23T01:22:20.565Z,2.07
2023-03-23T01:26:20.015Z,2.04
2023-03-23T01:30:19.734Z,2.03
2023-03-23T01:34:19.937Z,2.04
2023-03-23T01:38:20.114Z,2.01
2023-03-23T01:42:20.321Z,2.02
2023-03-23T01:46:20.430Z,2.02
2023-03-23T01:50:20.637Z,1.99
2023-03-23T01:54:20.778Z,1.99
2023-03-23T01:58:20.920Z,2.01
2023-03-23T02:02:21.085Z,1.96
2023-03-23T02:06:21.002Z,1.93
2023-03-23T02:10:21.000Z,1.94
2023-03-23T02:14:20.916Z,1.90
2023-03-23T02:18:20.887Z,1.93
2023-03-23T02:22:20.958Z,1.91
2023-03-23T02:26:20.827Z,1.88
2023-03-23T02:30:20.839Z,1.89
2023-03-23T02:34:20.687Z,1.91
2023-03-23T02:38:20.725Z,1.91
2023-03-23T02:42:21.508Z,1.87
2023-03-23T02:46:20.601Z,1.89
2023-03-23T02:50:20.566Z,1.92
2023-03-23T02:54:20.549Z,1.86
2023-03-23T02:58:20.524Z,1.83
2023-03-23T03:02:20.451Z,1.86
2023-03-23T03:06:20.447Z,1.90
2023-03-23T03:10:20.401Z,1.84
2023-03-23T03:14:20.382Z,1.83
2023-03-23T03:18:20.337Z,1.82
2023-03-23T03:22:20.291Z,1.85
2023-03-23T03:26:20.280Z,1.88
2023-03-23T03:30:20.222Z,1.86
2023-03-23T03:34:20.195Z,1.84
2023-03-23T03:38:20.116Z,1.84
2023-03-23T03:42:20.152Z,1.84
2023-03-23T03:46:20.111Z,1.85
2023-03-23T03:50:20.060Z,1.83
2023-03-23T03:54:20.046Z,1.83
2023-03-23T03:58:20.062Z,1.85
2023-03-23T04:02:19.919Z,1.82
2023-03-23T04:06:20.152Z,1.84
2023-03-23T04:10:32.687Z,1.84
2023-03-23T04:14:20.834Z,1.82
2023-03-23T04:18:19.825Z,1.84
2023-03-23T04:22:19.769Z,1.82
2023-03-23T04:26:19.732Z,1.78
2023-03-23T04:30:19.688Z,1.80
2023-03-23T04:34:19.612Z,1.82
2023-03-23T04:38:19.595Z,1.82
2023-03-23T04:42:19.582Z,1.81
2023-03-23T04:46:19.615Z,1.80
2023-03-23T04:50:19.554Z,1.81
2023-03-23T04:54:19.606Z,1.78
2023-03-23T04:58:19.609Z,1.81
2023-03-23T05:02:19.614Z,1.80
2023-03-23T05:06:19.659Z,1.64
2023-03-23T05:10:24.676Z,1.44
2023-03-23T05:14:20.631Z,1.38
2023-03-23T05:18:19.567Z,1.31
2023-03-23T05:22:19.485Z,1.22
2023-03-23T05:26:19.466Z,1.16
2023-03-23T05:30:19.476Z,1.08
2023-03-23T05:34:19.566Z,1.08
2023-03-23T05:38:19.681Z,1.05
2023-03-23T05:42:19.700Z,1.04
2023-03-23T05:46:20.570Z,1.02
2023-03-23T05:50:19.739Z,1.04
2023-03-23T05:54:19.736Z,1.03
2023-03-23T05:58:19.774Z,1.05
2023-03-23T06:02:19.725Z,1.02
2023-03-23T06:06:19.713Z,1.04
2023-03-23T06:10:19.746Z,1.06
2023-03-23T06:14:19.709Z,1.05
2023-03-23T06:18:19.694Z,1.07
2023-03-23T06:22:19.665Z,1.06
2023-03-23T06:26:19.623Z,1.07
2023-03-23T06:30:19.685Z,1.08
2023-03-23T06:34:20.231Z,1.10
2023-03-23T06:38:20.597Z,1.10
2023-03-23T06:42:19.665Z,1.21
2023-03-23T06:46:19.654Z,1.46
2023-03-23T06:50:19.658Z,1.60
2023-03-23T06:54:19.644Z,1.76
2023-03-23T06:58:19.662Z,1.93
2023-03-23T07:02:19.649Z,1.92
2023-03-23T07:06:19.678Z,2.28
2023-03-23T07:10:19.910Z,3.06
2023-03-23T07:14:19.991Z,4.19
2023-03-23T07:18:20.145Z,4.77
2023-03-23T07:22:20.267Z,4.29
2023-03-23T07:26:20.540Z,4.31
2023-03-23T07:30:20.522Z,4.37
2023-03-23T07:34:20.719Z,4.00
2023-03-23T07:38:20.617Z,3.92
2023-03-23T07:42:20.596Z,3.81
2023-03-23T07:46:20.859Z,3.44
2023-03-23T07:50:20.623Z,2.89
2023-03-23T07:54:20.465Z,2.68
2023-03-23T07:58:20.588Z,2.39
2023-03-23T08:02:20.413Z,2.38
2023-03-23T08:06:20.463Z,2.30
2023-03-23T08:10:20.356Z,2.22
2023-03-23T08:14:21.935Z,2.13
2023-03-23T08:18:20.263Z,2.06
2023-03-23T08:22:20.236Z,2.03
2023-03-23T08:26:20.149Z,2.03
2023-03-23T08:30:20.700Z,2.00
2023-03-23T08:34:20.107Z,1.51
2023-03-23T08:38:20.316Z,1.35
2023-03-23T08:42:20.665Z,1.42
2023-03-23T08:46:20.702Z,1.48
2023-03-23T08:50:20.887Z,1.35
2023-03-23T08:54:21.028Z,1.32
2023-03-23T08:58:21.218Z,1.34
2023-03-23T09:02:22.170Z,1.30
2023-03-23T09:06:21.353Z,1.17
2023-03-23T09:10:21.449Z,1.22
2023-03-23T09:14:21.503Z,1.20
2023-03-23T09:18:21.641Z,1.08
2023-03-23T09:22:21.834Z,1.02
2023-03-23T09:26:21.669Z,1.11
2023-03-23T09:30:21.626Z,0.98
2023-03-23T09:34:21.642Z,1.00
2023-03-23T09:38:21.571Z,0.96
2023-03-23T09:42:21.607Z,0.85
2023-03-23T09:46:21.468Z,0.98
2023-03-23T09:50:21.447Z,1.02
2023-03-23T09:54:21.386Z,0.98
2023-03-23T09:58:21.362Z,0.99
2023-03-23T10:02:21.328Z,0.94
2023-03-23T10:06:21.271Z,1.27
2023-03-23T10:10:21.355Z,0.96
2023-03-23T10:14:21.712Z,0.92
2023-03-23T10:18:21.258Z,0.97
2023-03-23T10:22:21.245Z,0.87
2023-03-23T10:26:21.253Z,0.86
2023-03-23T10:30:21.850Z,1.37
2023-03-23T10:34:21.232Z,1.24
2023-03-23T10:38:21.259Z,1.11
2023-03-23T10:42:21.031Z,0.75
2023-03-23T10:46:31.601Z,0.53
2023-03-23T10:50:21.963Z,0.43
2023-03-23T10:54:20.928Z,0.50
2023-03-23T10:58:20.990Z,0.55
2023-03-23T11:02:29.409Z,0.50
2023-03-23T11:06:22.120Z,0.43
2023-03-23T11:10:21.072Z,0.50
2023-03-23T11:14:20.989Z,0.57
2023-03-23T11:18:20.980Z,0.51
2023-03-23T11:22:20.941Z,0.57
2023-03-23T11:26:20.913Z,0.49
2023-03-23T11:30:20.892Z,0.40
2023-03-23T11:34:21.100Z,0.51
2023-03-23T11:38:21.161Z,0.70
2023-03-23T11:42:21.293Z,0.80
2023-03-23T11:46:21.463Z,1.08
2023-03-23T11:50:21.610Z,1.38
2023-03-23T11:54:21.733Z,2.01
2023-03-23T11:58:21.918Z,2.35
2023-03-23T12:02:22.056Z,2.56
2023-03-23T12:06:22.172Z,1.62
2023-03-23T12:10:30.692Z,1.63
2023-03-23T12:14:25.157Z,2.13
2023-03-23T12:18:22.760Z,2.00
2023-03-23T12:22:22.265Z,2.28
2023-03-23T12:26:22.216Z,1.64
2023-03-23T12:30:22.402Z,1.29
2023-03-23T12:34:22.410Z,1.77
2023-03-23T12:38:22.549Z,2.10
2023-03-23T12:42:22.656Z,2.23
2023-03-23T12:46:22.765Z,1.62
2023-03-23T12:50:22.969Z,1.38
2023-03-23T12:54:23.042Z,1.01
2023-03-23T12:58:23.155Z,0.88
2023-03-23T13:02:23.286Z,0.80
2023-03-23T13:06:23.305Z,0.74
2023-03-23T13:10:24.303Z,0.70
2023-03-23T13:14:23.289Z,0.61
2023-03-23T13:18:23.234Z,0.83
2023-03-23T13:22:23.150Z,1.24
2023-03-23T13:26:23.125Z,1.41
2023-03-23T13:30:23.166Z,1.62
2023-03-23T13:34:23.378Z,1.98
2023-03-23T13:38:23.616Z,2.20
2023-03-23T13:42:23.769Z,2.69
2023-03-23T13:46:23.880Z,2.85
2023-03-23T13:50:24.133Z,3.30
2023-03-23T13:54:24.199Z,3.71
2023-03-23T13:58:24.212Z,3.97
2023-03-23T14:02:24.250Z,3.96
2023-03-23T14:06:24.278Z,4.84
2023-03-23T14:10:24.346Z,4.91
2023-03-23T14:14:24.432Z,4.73
2023-03-23T14:18:24.466Z,6.13
2023-03-23T14:22:24.571Z,6.35
2023-03-23T14:26:24.645Z,6.34
2023-03-23T14:30:24.732Z,6.61
2023-03-23T14:34:24.805Z,6.81
2023-03-23T14:38:24.881Z,6.88
2023-03-23T14:42:24.937Z,6.43
2023-03-23T14:46:25.339Z,6.03
2023-03-23T14:50:25.101Z,6.03
2023-03-23T14:54:25.082Z,6.36
2023-03-23T14:58:25.118Z,6.15
2023-03-23T15:02:25.283Z,5.31
2023-03-23T15:06:25.092Z,5.26
2023-03-23T15:10:25.132Z,5.19
2023-03-23T15:14:25.148Z,5.40
2023-03-23T15:18:25.167Z,5.68
2023-03-23T15:22:25.233Z,6.69
2023-03-23T15:26:25.276Z,6.55
2023-03-23T15:30:25.264Z,6.68
2023-03-23T15:34:25.285Z,6.19
2023-03-23T15:38:25.364Z,5.82
2023-03-23T15:42:26.691Z,5.93
2023-03-23T15:46:25.470Z,5.24
2023-03-23T15:50:25.506Z,5.61
2023-03-23T15:54:25.617Z,5.97
2023-03-23T15:58:25.679Z,6.09
2023-03-23T16:02:25.825Z,6.34
2023-03-23T16:06:25.816Z,6.48
2023-03-23T16:10:25.632Z,6.40
2023-03-23T16:14:25.669Z,6.29
2023-03-23T16:18:25.671Z,6.59
2023-03-23T16:22:25.728Z,6.37
2023-03-23T16:26:25.753Z,6.14
2023-03-23T16:30:25.747Z,5.69
2023-03-23T16:34:25.806Z,5.72
2023-03-23T16:38:25.964Z,5.84
2023-03-23T16:42:26.028Z,5.95
2023-03-23T16:46:26.105Z,5.57
2023-03-23T16:50:26.246Z,5.67
2023-03-23T16:54:26.325Z,5.20
2023-03-23T16:58:26.537Z,5.05
2023-03-23T17:02:26.861Z,5.02
2023-03-23T17:06:26.808Z,5.01
2023-03-23T17:10:27.029Z,5.00
2023-03-23T17:14:27.087Z,4.98
2023-03-23T17:18:27.294Z,5.23
2023-03-23T17:22:27.462Z,5.05
2023-03-23T17:26:27.902Z,4.77
2023-03-23T17:30:27.887Z,4.71
2023-03-23T17:34:28.120Z,4.68
2023-03-23T17:38:28.078Z,4.71
2023-03-23T17:42:28.063Z,4.42
2023-03-23T17:46:28.000Z,4.44
2023-03-23T17:50:27.968Z,4.33
2023-03-23T17:54:27.927Z,4.44
2023-03-23T17:58:27.931Z,4.19
2023-03-23T18:02:27.932Z,4.15
2023-03-23T18:06:27.790Z,4.23
2023-03-23T18:10:27.797Z,4.43
2023-03-23T18:14:27.921Z,4.34
2023-03-23T18:18:27.695Z,4.30
2023-03-23T18:22:27.728Z,4.46
2023-03-23T18:26:27.717Z,5.81
2023-03-23T18:30:27.672Z,7.13
2023-03-23T18:34:27.625Z,4.70
2023-03-23T18:38:27.727Z,3.96
2023-03-23T18:42:27.778Z,3.84
2023-03-23T18:46:27.877Z,4.16
2023-03-23T18:50:28.024Z,4.64
2023-03-23T18:54:28.172Z,4.23
2023-03-23T18:58:28.388Z,3.48
2023-03-23T19:02:28.599Z,2.77
2023-03-23T19:06:28.725Z,3.08
2023-03-23T19:10:28.880Z,3.21
2023-03-23T19:14:29.001Z,3.81
2023-03-23T19:18:29.132Z,3.89
2023-03-23T19:22:29.217Z,3.87
2023-03-23T19:26:29.351Z,3.96
2023-03-23T19:30:29.480Z,4.18
2023-03-23T19:34:30.092Z,4.15
2023-03-23T19:38:29.702Z,4.30
2023-03-23T19:42:29.848Z,4.33
2023-03-23T19:46:30.971Z,4.44
2023-03-23T19:50:30.030Z,4.54
2023-03-23T19:54:30.132Z,4.62
2023-03-23T19:58:30.450Z,4.70
2023-03-23T20:02:30.555Z,4.71
2023-03-23T20:06:30.556Z,4.72
2023-03-23T20:10:30.707Z,4.63
2023-03-23T20:14:30.985Z,4.81
2023-03-23T20:18:31.533Z,4.88
2023-03-23T20:22:31.123Z,4.87
2023-03-23T20:26:31.369Z,4.88
2023-03-23T20:30:31.458Z,4.75
2023-03-23T20:34:31.764Z,4.75
2023-03-23T20:38:31.914Z,4.81
2023-03-23T20:42:31.998Z,4.85
2023-03-23T20:46:32.210Z,4.75
2023-03-23T20:50:32.345Z,4.79
2023-03-23T20:54:32.555Z,4.92
2023-03-23T20:58:32.785Z,4.87
2023-03-23T21:02:32.932Z,4.79
2023-03-23T21:06:33.122Z,4.85
2023-03-23T21:10:33.259Z,4.77
2023-03-23T21:14:33.488Z,4.82
2023-03-23T21:18:33.618Z,4.75
2023-03-23T21:22:33.859Z,4.73
2023-03-23T21:26:34.029Z,4.80
2023-03-23T21:30:34.221Z,4.76
2023-03-23T21:34:34.452Z,4.70
2023-03-23T21:38:34.730Z,4.71
2023-03-23T21:42:34.656Z,4.59
2023-03-23T21:46:34.572Z,4.66
2023-03-23T21:50:34.570Z,4.69
2023-03-23T21:54:34.483Z,4.66
2023-03-23T21:58:34.445Z,4.59
2023-03-23T22:02:34.425Z,4.48
2023-03-23T22:06:34.439Z,4.64
2023-03-23T22:10:34.343Z,4.47
2023-03-23T22:14:34.319Z,4.41
2023-03-23T22:18:34.256Z,4.46
2023-03-23T22:22:34.242Z,4.38
2023-03-23T22:26:34.218Z,4.37
2023-03-23T22:30:34.199Z,4.39
2023-03-23T22:34:34.135Z,4.35
2023-03-23T22:38:34.108Z,4.31
2023-03-23T22:42:34.092Z,4.25
2023-03-23T22:46:34.058Z,4.28
2023-03-23T22:50:33.982Z,4.28
2023-03-23T22:54:33.970Z,4.14
2023-03-23T22:58:34.001Z,4.17
2023-03-23T23:02:33.973Z,4.16
2023-03-23T23:06:33.940Z,4.10
2023-03-23T23:10:33.922Z,4.00
2023-03-23T23:14:33.842Z,4.07
2023-03-23T23:18:33.839Z,4.02
2023-03-23T23:22:33.764Z,3.91
2023-03-23T23:26:33.707Z,3.91
2023-03-23T23:30:33.689Z,3.86
2023-03-23T23:34:33.772Z,3.81
2023-03-23T23:38:33.615Z,3.77
2023-03-23T23:42:33.590Z,3.77
2023-03-23T23:46:33.751Z,3.71
2023-03-23T23:50:33.830Z,3.74
2023-03-23T23:54:33.925Z,3.68
2023-03-23T23:58:34.038Z,3.74
